Latest Weather Observations for Cerberus

IDV60901

Issued at 5:11 pm EST Tuesday 26 September 2017 (issued every 10 minutes, with the page automatically refreshed every 10 minutes)

About weather observations | Map of Melbourne area stations | Latest observations for Melbourne area | Other Formats
Station Details ID: 086361 Name: CERBERUS Lat: -38.36 Lon: 145.18 Height: 12.69 m
Data from the previous 72 hours. | See also: Recent months at Cerberus
Date/Time
EST
Temp
°C
App
Temp
°C
Dew
Point
°C
Rel
Hum
%
Delta-T
°C
Wind Press
QNH
hPa
Press
MSL
hPa
Rain since
9am
mm
Dir  Spd
km/h
Gust
km/h
Spd
kts
Gust
kts
26/05:00pm 13.3 10.5 3.1 50 4.5 SSW 7 11 4 6 1016.1 1016.1 0.0
26/04:30pm 13.3 10.6 2.8 49 4.6 S 6 11 3 6 1016.3 1016.3 0.0
26/04:00pm 13.6 10.8 3.1 49 4.7 SSE 7 13 4 7 1016.4 1016.4 0.0
26/03:30pm 13.5 9.9 3.0 49 4.7 S 11 17 6 9 1016.4 1016.4 0.0
26/03:00pm 13.4 10.4 4.0 53 4.3 S 9 11 5 6 1016.6 1016.6 0.0
26/02:30pm 13.0 10.3 3.9 54 4.1 SSW 7 13 4 7 1016.9 1016.9 0.0
26/02:00pm 13.0 10.3 3.9 54 4.1 S 7 13 4 7 1017.2 1017.2 0.0
26/01:30pm 13.1 10.6 3.5 52 4.3 SSW 6 9 3 5 1017.4 1017.4 0.0
26/01:00pm 12.6 9.4 3.3 53 4.1 SSW 9 13 5 7 1017.6 1017.6 0.0
26/12:30pm 13.0 10.7 4.9 58 3.7 WSW 6 9 3 5 1017.7 1017.7 0.0
26/12:00pm 12.1 10.4 5.9 66 2.9 NNE 4 7 2 4 1017.8 1017.8 0.0
26/11:30am 11.4 8.4 5.9 69 2.6 NW 11 15 6 8 1018.0 1018.0 0.0
26/11:00am 12.1 9.9 6.2 67 2.8 NW 7 15 4 8 1018.1 1018.1 0.0
26/10:30am 12.1 9.4 3.6 56 3.8 SSW 7 13 4 7 1018.1 1018.1 0.0
26/10:00am 12.3 10.1 6.1 66 2.9 W 7 11 4 6 1018.0 1018.0 0.0
26/09:30am 11.8 9.7 6.7 71 2.4 NW 7 11 4 6 1017.9 1017.9 0.0
26/09:00am 11.3 8.4 6.6 73 2.2 NW 11 17 6 9 1018.1 1018.1 0.2
26/08:30am 11.4 9.6 8.1 80 1.6 NW 7 13 4 7 1017.8 1017.8 0.2
26/08:00am 10.3 8.5 7.0 80 1.6 NW 6 7 3 4 1017.6 1017.6 0.2
26/07:30am 9.8 7.6 6.3 79 1.6 WNW 7 11 4 6 1017.4 1017.4 0.2
26/07:00am 9.0 6.8 6.4 84 1.2 WNW 7 13 4 7 1017.1 1017.1 0.2
26/06:30am 8.6 6.5 6.7 88 0.9 WNW 7 9 4 5 1017.0 1017.0 0.2
26/06:00am 7.3 5.5 5.6 89 0.8 WNW 4 6 2 3 1016.7 1016.7 0.2
26/05:30am 7.6 6.7 5.9 89 0.8 CALM 0 4 0 2 1016.4 1016.4 0.2
26/05:00am 8.0 6.4 6.3 89 0.8 NW 4 6 2 3 1016.1 1016.1 0.2
26/04:30am 7.8 5.8 6.1 89 0.8 NW 6 7 3 4 1015.9 1015.9 0.2
26/04:00am 7.1 4.9 5.3 88 0.8 NW 6 7 3 4 1015.8 1015.8 0.2
26/03:30am 7.4 5.2 5.4 87 0.9 NW 6 7 3 4 1015.8 1015.8 0.2
26/03:00am 8.0 5.9 5.6 85 1.1 NW 6 7 3 4 1015.7 1015.7 0.2
26/02:30am 8.6 6.4 6.1 84 1.1 NW 7 11 4 6 1015.7 1015.7 0.2
26/02:00am 8.6 6.5 5.9 83 1.2 WSW 6 7 3 4 1015.8 1015.8 0.0
26/01:30am 8.6 6.3 5.9 83 1.2 WNW 7 9 4 5 1015.6 1015.6 0.0
26/01:00am 8.7 6.5 6.0 83 1.2 WNW 7 9 4 5 1015.7 1015.7 0.0
26/12:30am 8.7 6.4 4.9 77 1.7 WNW 6 9 3 5 1015.5 1015.5 0.0
26/12:00am 9.0 6.9 5.7 80 1.5 WNW 6 7 3 4 1015.5 1015.5 0.0
 
Date/Time
EST
Temp
°C
App
Temp
°C
Dew
Point
°C
Rel
Hum
%
Delta-T
°C
Wind Press
QNH
hPa
Press
MSL
hPa
Rain since
9am
mm
Dir  Spd
km/h
Gust
km/h
Spd
kts
Gust
kts
25/11:30pm 9.0 6.3 5.7 80 1.5 NW 9 13 5 7 1015.3 1015.3 0.0
25/11:00pm 8.9 6.2 5.5 79 1.5 W 9 17 5 9 1015.2 1015.2 0.0
25/10:30pm 8.2 5.7 4.6 78 1.6 WNW 7 9 4 5 1015.1 1015.1 0.0
25/10:00pm 8.3 5.9 4.3 76 1.7 WNW 6 7 3 4 1015.0 1015.0 0.0
25/09:30pm 9.2 6.6 4.4 72 2.1 WNW 7 11 4 6 1014.8 1014.8 0.0
25/09:00pm 9.4 6.6 5.2 75 1.9 W 9 17 5 9 1014.7 1014.7 0.0
25/08:30pm 9.6 6.3 4.4 70 2.3 W 11 24 6 13 1014.5 1014.5 0.0
25/08:00pm 9.3 6.3 3.9 69 2.4 WSW 9 15 5 8 1013.9 1013.9 0.0
25/07:30pm 9.0 6.3 3.8 70 2.3 WSW 7 11 4 6 1013.4 1013.5 0.0
25/07:00pm 9.6 5.8 4.0 68 2.5 WSW 13 22 7 12 1013.2 1013.3 0.0
25/06:30pm 10.2 5.8 4.6 68 2.5 WSW 17 26 9 14 1012.9 1013.0 0.0
25/06:00pm 10.9 5.5 4.6 65 2.8 WSW 22 37 12 20 1012.5 1012.6 0.0
25/05:30pm 11.3 6.9 4.7 64 3.0 WSW 17 28 9 15 1012.1 1012.2 0.0
25/05:00pm 11.8 6.0 4.5 61 3.3 WSW 24 37 13 20 1011.7 1011.8 0.0
25/04:30pm 10.8 5.7 5.8 71 2.3 SW 22 37 12 20 1011.3 1011.4 0.0
25/04:00pm 11.9 6.7 5.3 64 3.0 SW 22 32 12 17 1010.9 1010.9 0.0
25/03:30pm 12.2 7.4 5.4 63 3.2 SW 20 35 11 19 1010.5 1010.5 0.0
25/03:00pm 11.7 6.5 5.3 65 3.0 WSW 22 35 12 19 1010.2 1010.2 0.0
25/02:30pm 12.2 7.7 6.3 67 2.8 WSW 19 33 10 18 1009.8 1009.8 0.0
25/02:00pm 11.8 6.4 6.3 69 2.6 SW 24 39 13 21 1009.7 1009.7 0.0
25/01:30pm 12.1 7.2 6.8 70 2.5 SW 22 32 12 17 1009.4 1009.4 0.0
25/01:00pm 12.2 7.7 6.9 70 2.5 WSW 20 35 11 19 1009.3 1009.3 0.0
25/12:30pm 12.1 7.0 5.9 66 2.9 WSW 22 33 12 18 1009.1 1009.1 0.0
25/12:00pm 12.4 7.4 6.5 67 2.8 WSW 22 33 12 18 1008.9 1008.9 0.0
25/11:30am 12.9 8.0 6.7 66 3.0 WSW 22 33 12 18 1008.5 1008.5 0.0
25/11:00am 13.4 8.7 6.0 61 3.5 WSW 20 33 11 18 1008.4 1008.4 0.0
25/10:30am 13.3 8.1 5.7 60 3.6 W 22 33 12 18 1008.2 1008.2 0.0
25/10:00am 12.6 7.8 5.5 62 3.3 W 20 35 11 19 1008.1 1008.1 0.0
25/09:30am 11.8 7.3 6.3 69 2.6 WSW 19 30 10 16 1007.8 1007.8 0.0
25/09:00am 12.6 8.8 7.5 71 2.5 WSW 17 24 9 13 1007.4 1007.4 3.8
25/08:30am 12.1 9.6 8.2 77 1.9 W 11 17 6 9 1007.1 1007.1 3.8
25/08:00am 10.9 7.5 7.8 81 1.5 WSW 15 24 8 13 1006.6 1006.6 3.8
25/07:30am 10.9 8.5 8.5 85 1.2 WNW 11 19 6 10 1006.2 1006.2 3.8
25/07:00am 10.3 8.2 8.1 86 1.1 WNW 9 17 5 9 1005.9 1005.9 3.8
25/06:30am 9.7 5.9 7.5 86 1.0 W 17 24 9 13 1005.4 1005.4 3.8
25/06:00am 10.2 8.7 8.3 88 0.9 WNW 6 7 3 4 1005.1 1005.1 3.4
25/05:30am 10.3 7.4 8.2 87 1.0 WSW 13 24 7 13 1004.4 1004.4 3.4
25/05:00am 10.2 8.1 8.3 88 0.9 W 9 15 5 8 1004.1 1004.1 3.4
25/04:30am 10.7 9.2 9.0 89 0.8 WNW 7 13 4 7 1003.7 1003.7 3.2
25/04:00am 11.0 8.8 9.3 89 0.9 WSW 11 17 6 9 1003.4 1003.4 2.8
25/03:30am 11.5 8.5 9.1 85 1.2 W 15 24 8 13 1002.9 1002.9 1.0
25/03:00am 12.1 7.6 8.6 79 1.7 WNW 22 35 12 19 1002.5 1002.5 0.8
25/02:30am 12.3 6.9 8.2 76 2.0 WNW 26 44 14 24 1002.3 1002.3 0.8
25/02:00am 12.6 7.7 8.3 75 2.1 WNW 24 39 13 21 1002.4 1002.4 0.8
25/01:30am 12.8 7.8 7.9 72 2.4 WNW 24 35 13 19 1002.2 1002.2 0.8
25/01:00am 12.9 8.6 8.0 72 2.4 WNW 20 33 11 18 1002.2 1002.2 0.8
25/12:30am 13.0 8.4 8.1 72 2.4 WNW 22 35 12 19 1002.0 1002.0 0.8
25/12:00am 13.2 7.7 7.6 69 2.8 WNW 26 44 14 24 1001.5 1001.5 0.8
 
Date/Time
EST
Temp
°C
App
Temp
°C
Dew
Point
°C
Rel
Hum
%
Delta-T
°C
Wind Press
QNH
hPa
Press
MSL
hPa
Rain since
9am
mm
Dir  Spd
km/h
Gust
km/h
Spd
kts
Gust
kts
24/11:30pm 13.5 7.6 7.5 67 2.9 WNW 28 46 15 25 1001.3 1001.3 0.8
24/11:05pm 13.6 7.0 7.6 67 2.9 WNW 32 52 17 28 1001.0 1001.0 0.8
24/11:00pm 13.7 7.1 7.7 67 3.0 WNW 32 48 17 26 1000.9 1000.9 0.8
24/10:30pm 13.7 7.5 7.7 67 3.0 WNW 30 59 16 32 1000.4 1000.4 0.8
24/10:00pm 14.0 7.3 7.5 65 3.2 WNW 32 54 17 29 1000.2 1000.2 0.8
24/09:37pm 14.1 7.5 7.6 65 3.2 NW 32 59 17 32 999.8 999.8 0.8
24/09:30pm 14.0 7.7 7.5 65 3.2 NW 30 46 16 25 999.7 999.7 0.8
24/09:00pm 14.3 8.0 7.6 64 3.3 NW 30 54 16 29 999.3 999.3 0.8
24/08:57pm 14.2 8.3 7.5 64 3.3 NW 28 52 15 28 999.1 999.1 0.8
24/08:30pm 14.2 8.3 7.3 63 3.4 NW 28 44 15 24 998.9 998.9 0.8
24/08:00pm 14.4 7.9 6.7 60 3.8 NW 30 56 16 30 998.5 998.5 0.8
24/07:30pm 14.7 7.8 6.3 57 4.0 NW 32 50 17 27 997.8 997.8 0.8
24/07:01pm 14.7 7.9 6.8 59 3.8 NW 32 50 17 27 997.6 997.6 0.8
24/07:00pm 14.7 7.7 6.8 59 3.9 NW 33 50 18 27 997.7 997.7 0.8
24/06:58pm 14.8 8.0 6.9 59 3.9 NW 32 50 17 27 997.6 997.6 0.8
24/06:30pm 14.1 9.4 7.6 65 3.2 NW 22 33 12 18 997.2 997.2 0.8
24/06:00pm 13.7 9.2 8.7 72 2.5 WNW 22 35 12 19 997.2 997.2 0.8
24/05:44pm 13.7 8.0 8.3 70 2.7 WNW 28 50 15 27 997.1 997.1 0.6
24/05:30pm 15.9 10.9 6.6 54 4.5 NW 22 37 12 20 996.9 996.9 0.0
24/05:00pm 15.4 11.6 7.4 59 4.0 NW 17 30 9 16 996.3 996.3 0.0
24/04:30pm 15.9 10.2 6.9 55 4.4 NW 26 48 14 26 996.2 996.2 0.0
24/04:00pm 16.3 9.7 6.2 51 5.0 NW 30 52 16 28 996.1 996.1 0.0
24/03:30pm 16.9 10.4 6.4 50 5.2 NW 30 50 16 27 995.9 995.9 0.0
24/03:26pm 17.0 10.9 6.8 51 5.0 NW 28 46 15 25 995.9 995.9 0.0
24/03:00pm 16.8 11.0 6.3 50 5.2 NW 26 43 14 23 996.0 996.0 0.0
24/02:30pm 16.9 11.2 6.7 51 5.0 NW 26 39 14 21 996.4 996.4 0.0
24/02:00pm 15.4 10.1 6.7 56 4.3 NW 24 37 13 20 996.7 996.7 0.0
24/01:33pm 17.0 10.9 6.5 50 5.2 NW 28 48 15 26 996.8 996.8 0.0
24/01:30pm 17.0 10.0 5.9 48 5.4 NW 32 48 17 26 996.7 996.7 0.0
24/01:05pm 17.6 10.7 6.5 48 5.5 NW 32 52 17 28 997.1 997.1 0.0
24/01:00pm 17.4 10.9 6.3 48 5.5 NW 30 46 16 25 997.1 997.1 0.0
24/12:30pm 15.8 9.3 6.5 54 4.5 NW 30 50 16 27 997.5 997.5 0.0
24/12:00pm 16.7 10.3 6.8 52 4.9 NW 30 61 16 33 997.4 997.4 0.0
24/11:46am 16.2 8.7 6.3 52 4.8 NW 35 56 19 30 997.5 997.5 0.0
24/11:30am 16.3 9.5 6.7 53 4.7 NW 32 50 17 27 997.4 997.4 0.0
24/11:02am 16.3 10.4 7.5 56 4.4 NW 28 46 15 25 997.6 997.6 0.0
24/11:00am 16.3 9.9 7.0 54 4.6 NW 30 46 16 25 997.5 997.5 0.0
24/10:30am 15.5 9.1 7.0 57 4.2 NW 30 54 16 29 997.8 997.8 0.0
24/10:27am 15.4 9.0 6.9 57 4.2 NW 30 48 16 26 997.8 997.8 0.0
24/10:00am 14.8 9.6 7.1 60 3.8 NW 24 43 13 23 998.1 998.1 0.0
24/09:30am 14.1 8.3 7.9 66 3.1 NW 28 41 15 22 998.3 998.3 0.0
24/09:00am 12.9 8.0 8.4 74 2.3 NW 24 39 13 21 998.1 998.1 4.2
24/08:30am 10.8 6.6 8.4 85 1.2 WNW 20 41 11 22 998.0 998.0 4.2
24/08:00am 9.4 4.2 7.3 87 1.0 WNW 24 41 13 22 998.1 998.1 4.0
24/07:35am 10.6 5.2 4.7 67 2.7 NNW 22 65 12 35 998.3 998.3 1.0
24/07:30am 12.4 8.7 8.1 75 2.1 NNW 17 35 9 19 996.6 996.6 0.2
24/07:00am 12.5 9.1 7.6 72 2.4 N 15 26 8 14 996.3 996.3 0.0
24/06:30am 13.2 9.9 6.5 64 3.2 NNW 13 20 7 11 996.5 996.5 0.0
24/06:00am 12.9 10.3 6.0 63 3.3 N 9 19 5 10 996.7 996.7 0.0
24/05:30am 12.8 9.5 6.2 64 3.1 NNW 13 24 7 13 996.9 996.9 0.0
24/05:00am 12.7 9.8 6.3 65 3.1 NNW 11 20 6 11 997.4 997.4 0.0
24/04:30am 12.7 9.4 6.5 66 3.0 NW 13 26 7 14 997.4 997.4 0.0
24/04:00am 13.0 8.9 6.4 64 3.2 NW 17 33 9 18 997.4 997.4 0.0
24/03:30am 13.3 8.1 7.1 66 3.0 NW 24 44 13 24 997.2 997.2 0.0
24/03:00am 13.6 8.1 7.4 66 3.1 WNW 26 46 14 25 996.9 996.9 0.0
24/02:45am 13.8 7.9 7.3 65 3.2 WNW 28 50 15 27 997.1 997.1 0.0
24/02:30am 13.8 8.2 7.3 65 3.2 WNW 26 46 14 25 997.1 997.1 0.0
24/02:00am 13.9 8.4 7.7 66 3.1 WNW 26 39 14 21 997.2 997.2 0.0
24/01:30am 13.9 9.3 8.3 69 2.8 NW 22 32 12 17 997.2 997.2 0.0
24/01:00am 14.2 10.0 8.2 67 3.0 WNW 20 35 11 19 997.4 997.4 0.0
24/12:30am 14.7 9.6 7.7 63 3.5 WNW 24 41 13 22 997.5 997.5 0.0
24/12:00am 14.6 10.2 8.8 68 3.0 WNW 22 37 12 20 997.6 997.6 0.0
 
Date/Time
EST
Temp
°C
App
Temp
°C
Dew
Point
°C
Rel
Hum
%
Delta-T
°C
Wind Press
QNH
hPa
Press
MSL
hPa
Rain since
9am
mm
Dir  Spd
km/h
Gust
km/h
Spd
kts
Gust
kts
23/11:30pm 14.6 10.6 9.2 70 2.8 WNW 20 35 11 19 997.7 997.7 0.0
23/11:00pm 15.0 10.8 9.6 70 2.8 WNW 22 35 12 19 997.9 997.9 0.0
23/10:30pm 15.2 10.6 9.6 69 2.9 WNW 24 33 13 18 998.0 998.0 0.0
23/10:00pm 15.1 10.6 10.1 72 2.6 NW 24 35 13 19 997.9 997.9 0.0
23/09:30pm 14.8 11.2 10.4 75 2.3 NW 20 28 11 15 998.0 998.0 0.0
23/09:00pm 14.4 12.4 10.2 76 2.2 NW 11 20 6 11 998.0 998.0 0.0
23/08:30pm 14.6 12.2 10.2 75 2.3 NW 13 20 7 11 997.5 997.5 0.0
23/08:00pm 15.1 12.3 9.9 71 2.7 WNW 15 22 8 12 997.4 997.4 0.0
23/07:30pm 14.8 13.4 9.6 71 2.7 W 7 13 4 7 997.1 997.1 0.0
23/07:00pm 14.7 12.1 9.3 70 2.8 WSW 13 22 7 12 996.4 996.4 0.0
23/06:30pm 14.7 10.7 9.1 69 2.9 SW 20 30 11 16 995.5 995.5 0.0
23/06:03pm 14.9 8.6 9.1 68 3.0 SW 32 50 17 27 994.4 994.4 0.0
23/06:00pm 14.9 8.7 9.3 69 2.9 SW 32 48 17 26 994.4 994.4 0.0
23/05:30pm 15.0 8.0 9.8 71 2.7 SW 37 61 20 33 993.2 993.2 0.0

Latest Capital City Observations: Canberra | Sydney | Melbourne | Brisbane | Adelaide | Perth | Hobart | Darwin

Other Formats:

Comma delimited format used in spreadsheet applications
http://www.bom.gov.au/fwo/IDV60901/IDV60901.94898.axf

JavaScript Object Notation format (JSON) in row-major order
http://www.bom.gov.au/fwo/IDV60901/IDV60901.94898.json